createdAt,value
2019-01-15T00:08:14.804Z,1.9
2019-01-15T00:23:25.922Z,1.9
2019-01-15T00:38:28.918Z,1.7
2019-01-15T00:53:48.207Z,1.6
2019-01-15T01:09:01.279Z,1.7
2019-01-15T01:24:10.695Z,2
2019-01-15T01:39:21.736Z,2
2019-01-15T01:54:33.057Z,2.1
2019-01-15T02:09:44.446Z,2.2
2019-01-15T02:24:55.622Z,2.2
2019-01-15T02:40:06.965Z,2.4
2019-01-15T02:55:13.193Z,2.5
2019-01-15T03:10:29.861Z,2.6
2019-01-15T03:25:41.354Z,2.6
2019-01-15T03:40:52.789Z,2.6
2019-01-15T03:56:04.220Z,2.6
2019-01-15T04:11:15.804Z,2.8
2019-01-15T04:26:27.441Z,2.7
2019-01-15T04:41:38.742Z,2.7
2019-01-15T04:56:50.185Z,2.7
2019-01-15T05:11:59.122Z,2.6
2019-01-15T05:27:13.213Z,2.5
2019-01-15T05:42:24.444Z,2.3
2019-01-15T05:57:35.755Z,2.3
2019-01-15T06:12:38.883Z,2.3
2019-01-15T06:27:58.501Z,2.6
2019-01-15T06:43:10.017Z,2.6
2019-01-15T06:58:21.650Z,2.8
2019-01-15T07:13:33.116Z,2.8
2019-01-15T07:28:44.245Z,2.8
2019-01-15T07:43:56.094Z,2.9
2019-01-15T07:59:08.255Z,3
2019-01-15T08:14:19.397Z,3.2
2019-01-15T08:29:24.685Z,3.4
2019-01-15T08:44:42.812Z,3.5
2019-01-15T08:59:54.753Z,3.7
2019-01-15T09:15:06.515Z,3.8
2019-01-15T09:30:18.384Z,3.8
2019-01-15T09:45:30.270Z,3.9
2019-01-15T10:00:42.193Z,3.9
2019-01-15T10:15:54.119Z,4
2019-01-15T10:31:06.020Z,4.1
2019-01-15T10:46:13.743Z,4.1
2019-01-15T11:01:30.064Z,3.4
2019-01-15T11:16:41.509Z,3.3
2019-01-15T11:31:53.289Z,3.5
2019-01-15T11:47:05.098Z,3.8
2019-01-15T12:02:22.126Z,4
2019-01-15T12:17:29.011Z,3.9
2019-01-15T12:32:40.969Z,3.9
2019-01-15T12:47:52.876Z,4
2019-01-15T13:03:02.415Z,3.7
2019-01-15T13:18:17.234Z,3.5
2019-01-15T13:33:28.321Z,3.4
2019-01-15T13:48:39.958Z,3.4
2019-01-15T14:03:43.913Z,3.4
2019-01-15T14:19:03.469Z,3.3
2019-01-15T14:34:15.130Z,3.3
2019-01-15T14:49:26.809Z,3.4
2019-01-15T15:04:38.601Z,3.5
2019-01-15T15:19:50.349Z,3.6
2019-01-15T15:35:02.103Z,3.6
2019-01-15T15:50:18.429Z,3.6
2019-01-15T16:05:25.716Z,3.5
2019-01-15T16:20:31.775Z,3.4
2019-01-15T16:35:48.999Z,3.4
2019-01-15T16:51:00.702Z,3.5
2019-01-15T17:06:12.492Z,3.7
2019-01-15T17:21:24.367Z,3.9
2019-01-15T17:36:36.333Z,4.2
2019-01-15T17:51:48.393Z,4.6
2019-01-15T18:07:00.537Z,4.6
2019-01-15T18:22:12.562Z,4.5
2019-01-15T18:37:20.801Z,4.5
2019-01-15T18:52:36.786Z,4.6
2019-01-15T19:07:48.970Z,4.7
2019-01-15T19:23:01.093Z,4.9
2019-01-15T19:38:13.327Z,4.9
2019-01-15T19:53:25.530Z,4.9
2019-01-15T20:08:37.860Z,5
2019-01-15T20:23:50.109Z,5.2
2019-01-15T20:39:02.467Z,5.3
2019-01-15T20:54:12.171Z,5.4
2019-01-15T21:09:27.535Z,5.9
2019-01-15T21:24:40.206Z,6
2019-01-15T21:39:52.949Z,6.1
2019-01-15T21:55:07.515Z,5.8
2019-01-15T22:10:17.892Z,5.7
2019-01-15T22:25:30.346Z,5.5
2019-01-15T22:40:42.734Z,5.4
2019-01-15T22:55:55.127Z,5.3
2019-01-15T23:11:05.116Z,5.1
2019-01-15T23:26:19.857Z,5
2019-01-15T23:41:31.939Z,4.8
2019-01-15T23:56:44.145Z,4.8
